sensor_id;sensor_type;location;lat;lon;timestamp;pressure;altitude;pressure_sealevel;temperature;humidity
77250;BME280;66287;42.658;27.568;2023-04-03T06:18:50;99620.16;;;20.58;61.08
77250;BME280;66287;42.658;27.568;2023-04-03T06:21:19;99621.22;;;20.62;53.48
77250;BME280;66287;42.658;27.568;2023-04-03T06:27:26;99606.19;;;20.44;53.27
77250;BME280;66287;42.658;27.568;2023-04-03T06:29:52;99614.28;;;20.05;52.32
77250;BME280;66287;42.658;27.568;2023-04-03T06:32:17;99617.88;;;19.85;46.08
77250;BME280;66287;42.658;27.568;2023-04-03T06:34:43;99615.19;;;19.65;47.54
77250;BME280;66287;42.658;27.568;2023-04-03T06:37:17;99626.16;;;19.45;48.80
77250;BME280;66287;42.658;27.568;2023-04-03T06:39:44;99623.16;;;19.36;52.48
77250;BME280;66287;42.658;27.568;2023-04-03T06:42:10;99618.72;;;19.20;46.73
77250;BME280;66287;42.658;27.568;2023-04-03T06:44:44;99619.84;;;19.14;51.16
77250;BME280;66287;42.658;27.568;2023-04-03T06:47:13;99623.66;;;18.98;45.63
77250;BME280;66287;42.658;27.568;2023-04-03T07:03:58;99635.22;;;19.10;54.23
77250;BME280;66287;42.658;27.568;2023-04-03T07:06:24;99629.13;;;19.03;45.22
77250;BME280;66287;42.658;27.568;2023-04-03T07:08:52;99635.47;;;19.23;49.55
77250;BME280;66287;42.658;27.568;2023-04-03T07:11:17;99640.97;;;19.39;48.97
77250;BME280;66287;42.658;27.568;2023-04-03T07:20:24;99651.72;;;19.81;45.75
77250;BME280;66287;42.658;27.568;2023-04-03T07:22:50;99657.69;;;20.18;53.20
77250;BME280;66287;42.658;27.568;2023-04-03T07:25:15;99649.09;;;20.50;51.37
77250;BME280;66287;42.658;27.568;2023-04-03T07:27:47;99651.38;;;20.92;47.51
77250;BME280;66287;42.658;27.568;2023-04-03T07:30:14;99654.16;;;21.37;44.32
77250;BME280;66287;42.658;27.568;2023-04-03T07:32:39;99651.50;;;21.55;47.53
77250;BME280;66287;42.658;27.568;2023-04-03T07:42:08;99663.94;;;21.82;49.02
77250;BME280;66287;42.658;27.568;2023-04-03T07:44:33;99674.38;;;21.90;50.98
77250;BME280;66287;42.658;27.568;2023-04-03T07:46:59;99669.63;;;21.27;41.30
77250;BME280;66287;42.658;27.568;2023-04-03T07:49:25;99667.69;;;21.33;45.49
77250;BME280;66287;42.658;27.568;2023-04-03T07:51:51;99679.69;;;21.47;43.93
77250;BME280;66287;42.658;27.568;2023-04-03T07:54:16;99680.22;;;21.49;42.72
77250;BME280;66287;42.658;27.568;2023-04-03T07:56:42;99695.00;;;21.63;46.29
77250;BME280;66287;42.658;27.568;2023-04-03T07:59:08;99687.72;;;21.44;39.82
77250;BME280;66287;42.658;27.568;2023-04-03T08:01:33;99683.50;;;21.56;40.50
77250;BME280;66287;42.658;27.568;2023-04-03T08:03:59;99687.78;;;21.73;46.38
77250;BME280;66287;42.658;27.568;2023-04-03T08:06:25;99681.22;;;21.63;38.71
77250;BME280;66287;42.658;27.568;2023-04-03T08:08:50;99687.50;;;21.35;37.67
77250;BME280;66287;42.658;27.568;2023-04-03T08:21:56;99682.34;;;21.91;37.48
77250;BME280;66287;42.658;27.568;2023-04-03T08:24:24;99686.59;;;22.13;44.29
77250;BME280;66287;42.658;27.568;2023-04-03T08:33:54;99673.91;;;23.58;37.39
77250;BME280;66287;42.658;27.568;2023-04-03T08:36:22;99678.84;;;23.43;33.66
77250;BME280;66287;42.658;27.568;2023-04-03T08:38:48;99678.88;;;23.24;36.79
77250;BME280;66287;42.658;27.568;2023-04-03T08:44:00;99676.69;;;24.78;36.98
77250;BME280;66287;42.658;27.568;2023-04-03T08:53:10;99662.06;;;25.94;29.83
77250;BME280;66287;42.658;27.568;2023-04-03T08:55:48;99662.31;;;26.37;32.23
77250;BME280;66287;42.658;27.568;2023-04-03T08:58:16;99656.28;;;27.01;38.32
77250;BME280;66287;42.658;27.568;2023-04-03T09:00:44;99650.09;;;27.30;30.23
77250;BME280;66287;42.658;27.568;2023-04-03T09:03:18;99652.88;;;27.30;32.92
77250;BME280;66287;42.658;27.568;2023-04-03T09:05:47;99662.19;;;27.08;32.44
77250;BME280;66287;42.658;27.568;2023-04-03T09:08:17;99651.81;;;26.74;28.62
77250;BME280;66287;42.658;27.568;2023-04-03T09:10:46;99654.09;;;26.72;31.02
77250;BME280;66287;42.658;27.568;2023-04-03T09:15:37;99649.34;;;26.72;35.20
77250;BME280;66287;42.658;27.568;2023-04-03T09:18:04;99652.44;;;26.71;35.69
77250;BME280;66287;42.658;27.568;2023-04-03T09:22:56;99656.47;;;25.63;32.48
77250;BME280;66287;42.658;27.568;2023-04-03T09:25:23;99654.84;;;25.26;37.05
77250;BME280;66287;42.658;27.568;2023-04-03T09:27:51;99655.53;;;25.10;33.46
77250;BME280;66287;42.658;27.568;2023-04-03T09:30:24;99660.34;;;24.90;36.07
77250;BME280;66287;42.658;27.568;2023-04-03T09:32:53;99649.31;;;24.77;35.85
77250;BME280;66287;42.658;27.568;2023-04-03T09:35:24;99655.28;;;24.56;36.59
77250;BME280;66287;42.658;27.568;2023-04-03T10:55:38;99656.44;;;24.09;36.23
77250;BME280;66287;42.658;27.568;2023-04-03T10:58:07;99645.28;;;23.68;36.02
77250;BME280;66287;42.658;27.568;2023-04-03T11:00:40;99650.41;;;23.23;38.75
77250;BME280;66287;42.658;27.568;2023-04-03T11:03:14;99646.22;;;23.07;40.50
77250;BME280;66287;42.658;27.568;2023-04-03T12:13:01;99648.31;;;22.30;47.32
77250;BME280;66287;42.658;27.568;2023-04-03T12:25:47;99636.72;;;21.75;49.32
77250;BME280;66287;42.658;27.568;2023-04-03T12:31:25;99620.81;;;21.62;49.33
77250;BME280;66287;42.658;27.568;2023-04-03T12:34:04;99617.94;;;21.48;50.20
77250;BME280;66287;42.658;27.568;2023-04-03T14:32:05;99559.78;;;20.07;56.98
77250;BME280;66287;42.658;27.568;2023-04-03T14:34:31;99557.91;;;19.98;58.33
77250;BME280;66287;42.658;27.568;2023-04-03T14:36:57;99551.13;;;19.70;58.40
77250;BME280;66287;42.658;27.568;2023-04-03T14:39:22;99556.06;;;19.68;59.13
77250;BME280;66287;42.658;27.568;2023-04-03T14:55:46;99542.41;;;20.22;56.18
77250;BME280;66287;42.658;27.568;2023-04-03T14:58:16;99537.97;;;20.26;56.57
77250;BME280;66287;42.658;27.568;2023-04-03T15:00:41;99536.59;;;20.23;56.92
77250;BME280;66287;42.658;27.568;2023-04-03T15:03:22;99548.72;;;20.22;58.18
77250;BME280;66287;42.658;27.568;2023-04-03T15:08:52;99539.91;;;20.20;55.97
77250;BME280;66287;42.658;27.568;2023-04-03T15:11:18;99535.00;;;20.17;56.70
77250;BME280;66287;42.658;27.568;2023-04-03T15:13:43;99539.41;;;20.13;57.42
77250;BME280;66287;42.658;27.568;2023-04-03T15:16:16;99547.97;;;20.07;56.93
77250;BME280;66287;42.658;27.568;2023-04-03T15:18:42;99539.19;;;20.00;57.42
77250;BME280;66287;42.658;27.568;2023-04-03T15:21:08;99553.25;;;19.93;57.84
77250;BME280;66287;42.658;27.568;2023-04-03T15:23:34;99570.31;;;19.85;57.44
77250;BME280;66287;42.658;27.568;2023-04-03T15:26:16;99567.03;;;19.83;58.54
77250;BME280;66287;42.658;27.568;2023-04-03T15:28:42;99567.88;;;19.73;58.05
77250;BME280;66287;42.658;27.568;2023-04-03T15:31:08;99562.94;;;19.65;56.97
77250;BME280;66287;42.658;27.568;2023-04-03T15:33:34;99557.72;;;19.58;58.25
77250;BME280;66287;42.658;27.568;2023-04-03T15:35:59;99571.50;;;19.53;57.24
77250;BME280;66287;42.658;27.568;2023-04-03T15:38:25;99585.19;;;19.43;58.35
77250;BME280;66287;42.658;27.568;2023-04-03T15:40:51;99604.16;;;19.40;57.56
77250;BME280;66287;42.658;27.568;2023-04-03T15:43:16;99607.72;;;19.40;57.89
77250;BME280;66287;42.658;27.568;2023-04-03T15:45:42;99601.97;;;19.26;57.93
77250;BME280;66287;42.658;27.568;2023-04-03T15:48:08;99606.38;;;19.22;57.06
77250;BME280;66287;42.658;27.568;2023-04-03T15:50:34;99589.06;;;19.22;57.03
77250;BME280;66287;42.658;27.568;2023-04-03T15:53:00;99586.88;;;19.14;57.93
77250;BME280;66287;42.658;27.568;2023-04-03T15:55:28;99583.00;;;19.05;56.87
77250;BME280;66287;42.658;27.568;2023-04-03T15:57:53;99581.91;;;18.90;58.56
77250;BME280;66287;42.658;27.568;2023-04-03T16:00:19;99577.50;;;18.89;59.53
77250;BME280;66287;42.658;27.568;2023-04-03T16:02:46;99567.88;;;18.82;59.31
77250;BME280;66287;42.658;27.568;2023-04-03T16:05:11;99567.63;;;18.78;58.62
77250;BME280;66287;42.658;27.568;2023-04-03T16:07:38;99563.75;;;18.69;58.39
77250;BME280;66287;42.658;27.568;2023-04-03T16:10:04;99573.06;;;18.68;59.41
77250;BME280;66287;42.658;27.568;2023-04-03T16:12:30;99580.19;;;18.64;59.21
77250;BME280;66287;42.658;27.568;2023-04-03T16:14:56;99576.91;;;18.62;58.52
77250;BME280;66287;42.658;27.568;2023-04-03T16:17:21;99568.09;;;18.55;59.90
77250;BME280;66287;42.658;27.568;2023-04-03T16:19:47;99554.59;;;18.48;58.85
77250;BME280;66287;42.658;27.568;2023-04-03T16:22:12;99541.97;;;18.37;59.10
77250;BME280;66287;42.658;27.568;2023-04-03T16:24:38;99535.63;;;18.32;58.54
77250;BME280;66287;42.658;27.568;2023-04-03T16:27:04;99534.50;;;18.22;58.34
77250;BME280;66287;42.658;27.568;2023-04-03T16:29:29;99543.25;;;18.19;59.15
77250;BME280;66287;42.658;27.568;2023-04-03T16:31:54;99558.88;;;18.19;59.16
77250;BME280;66287;42.658;27.568;2023-04-03T16:34:21;99537.22;;;18.12;58.78
77250;BME280;66287;42.658;27.568;2023-04-03T16:36:46;99523.97;;;17.99;59.30
77250;BME280;66287;42.658;27.568;2023-04-03T16:39:12;99509.72;;;17.92;59.87
77250;BME280;66287;42.658;27.568;2023-04-03T16:41:37;99495.16;;;17.86;58.66
77250;BME280;66287;42.658;27.568;2023-04-03T16:44:03;99488.00;;;17.75;59.90
77250;BME280;66287;42.658;27.568;2023-04-03T16:46:28;99471.81;;;17.74;59.09
77250;BME280;66287;42.658;27.568;2023-04-03T16:48:54;99465.22;;;17.70;59.65
77250;BME280;66287;42.658;27.568;2023-04-03T16:51:19;99471.50;;;17.65;59.06
77250;BME280;66287;42.658;27.568;2023-04-03T16:53:45;99473.91;;;17.56;58.86
77250;BME280;66287;42.658;27.568;2023-04-03T16:56:10;99490.81;;;17.48;59.80
77250;BME280;66287;42.658;27.568;2023-04-03T16:58:36;99513.00;;;17.47;60.24
77250;BME280;66287;42.658;27.568;2023-04-03T17:01:11;99524.78;;;17.47;59.50
77250;BME280;66287;42.658;27.568;2023-04-03T17:03:37;99539.53;;;17.41;59.82
77250;BME280;66287;42.658;27.568;2023-04-03T17:06:03;99543.88;;;17.32;59.43
77250;BME280;66287;42.658;27.568;2023-04-03T17:08:28;99528.00;;;17.34;59.50
77250;BME280;66287;42.658;27.568;2023-04-03T17:10:54;99510.47;;;17.35;59.89
77250;BME280;66287;42.658;27.568;2023-04-03T17:13:20;99485.75;;;17.25;59.42
77250;BME280;66287;42.658;27.568;2023-04-03T17:15:45;99491.75;;;17.22;60.12
77250;BME280;66287;42.658;27.568;2023-04-03T17:18:11;99525.44;;;17.17;59.62
77250;BME280;66287;42.658;27.568;2023-04-03T17:20:37;99521.81;;;17.12;59.63
77250;BME280;66287;42.658;27.568;2023-04-03T17:23:03;99512.78;;;17.11;59.65
77250;BME280;66287;42.658;27.568;2023-04-03T17:25:29;99527.19;;;17.02;60.17
77250;BME280;66287;42.658;27.568;2023-04-03T17:27:55;99531.00;;;16.96;60.36
77250;BME280;66287;42.658;27.568;2023-04-03T17:30:21;99538.13;;;16.97;60.44
77250;BME280;66287;42.658;27.568;2023-04-03T17:32:46;99564.09;;;16.94;60.06
77250;BME280;66287;42.658;27.568;2023-04-03T17:35:12;99551.19;;;16.90;60.32
77250;BME280;66287;42.658;27.568;2023-04-03T17:37:37;99500.19;;;16.78;60.62
77250;BME280;66287;42.658;27.568;2023-04-03T17:40:03;99497.19;;;16.80;60.44
77250;BME280;66287;42.658;27.568;2023-04-03T17:42:28;99493.84;;;16.73;61.09
77250;BME280;66287;42.658;27.568;2023-04-03T17:44:55;99482.28;;;16.66;61.01
77250;BME280;66287;42.658;27.568;2023-04-03T17:47:21;99479.56;;;16.66;60.99
77250;BME280;66287;42.658;27.568;2023-04-03T17:49:46;99476.72;;;16.61;60.92
77250;BME280;66287;42.658;27.568;2023-04-03T17:52:12;99469.00;;;16.52;61.14
77250;BME280;66287;42.658;27.568;2023-04-03T17:54:37;99484.59;;;16.52;60.77
77250;BME280;66287;42.658;27.568;2023-04-03T17:57:03;99470.81;;;16.42;61.16
77250;BME280;66287;42.658;27.568;2023-04-03T17:59:28;99473.78;;;16.35;61.39
77250;BME280;66287;42.658;27.568;2023-04-03T18:01:54;99456.50;;;16.30;61.80
77250;BME280;66287;42.658;27.568;2023-04-03T18:04:20;99455.91;;;16.28;61.69
77250;BME280;66287;42.658;27.568;2023-04-03T18:06:54;99473.34;;;16.22;61.71
77250;BME280;66287;42.658;27.568;2023-04-03T18:09:24;99507.50;;;16.19;61.73
77250;BME280;66287;42.658;27.568;2023-04-03T18:11:51;99509.03;;;16.10;62.03
77250;BME280;66287;42.658;27.568;2023-04-03T18:17:04;99521.56;;;16.06;62.29
77250;BME280;66287;42.658;27.568;2023-04-03T18:19:29;99516.91;;;16.06;62.06
77250;BME280;66287;42.658;27.568;2023-04-03T18:21:55;99519.09;;;16.04;62.21
77250;BME280;66287;42.658;27.568;2023-04-03T18:24:22;99525.63;;;16.03;62.38
77250;BME280;66287;42.658;27.568;2023-04-03T18:26:52;99526.38;;;15.99;62.57
77250;BME280;66287;42.658;27.568;2023-04-03T18:29:19;99520.38;;;15.97;62.58
77250;BME280;66287;42.658;27.568;2023-04-03T18:31:46;99529.66;;;15.96;62.33
77250;BME280;66287;42.658;27.568;2023-04-03T18:34:12;99546.16;;;15.84;62.52
77250;BME280;66287;42.658;27.568;2023-04-03T18:36:41;99543.09;;;15.80;62.65
77250;BME280;66287;42.658;27.568;2023-04-03T18:39:06;99548.81;;;15.79;62.71
77250;BME280;66287;42.658;27.568;2023-04-03T18:41:32;99540.63;;;15.79;62.55
77250;BME280;66287;42.658;27.568;2023-04-03T18:43:59;99521.44;;;15.74;62.63
77250;BME280;66287;42.658;27.568;2023-04-03T18:46:26;99513.75;;;15.71;62.80
77250;BME280;66287;42.658;27.568;2023-04-03T18:48:51;99500.03;;;15.66;63.10
77250;BME280;66287;42.658;27.568;2023-04-03T18:51:18;99503.75;;;15.60;63.15
77250;BME280;66287;42.658;27.568;2023-04-03T18:53:44;99499.53;;;15.52;63.07
77250;BME280;66287;42.658;27.568;2023-04-03T18:56:10;99513.94;;;15.47;63.11
77250;BME280;66287;42.658;27.568;2023-04-03T18:58:35;99529.41;;;15.42;63.27
77250;BME280;66287;42.658;27.568;2023-04-03T19:01:01;99521.47;;;15.40;63.17
77250;BME280;66287;42.658;27.568;2023-04-03T19:03:28;99482.63;;;15.33;63.68
77250;BME280;66287;42.658;27.568;2023-04-03T19:05:54;99449.28;;;15.31;63.33
77250;BME280;66287;42.658;27.568;2023-04-03T19:08:20;99471.88;;;15.27;63.40
77250;BME280;66287;42.658;27.568;2023-04-03T19:10:45;99471.53;;;15.23;63.24
77250;BME280;66287;42.658;27.568;2023-04-03T19:13:11;99464.38;;;15.17;63.61
77250;BME280;66287;42.658;27.568;2023-04-03T19:15:36;99473.06;;;15.14;63.62
77250;BME280;66287;42.658;27.568;2023-04-03T19:18:02;99472.97;;;15.09;63.49
77250;BME280;66287;42.658;27.568;2023-04-03T19:20:27;99472.41;;;15.07;63.62
77250;BME280;66287;42.658;27.568;2023-04-03T19:22:53;99471.91;;;15.10;63.43
77250;BME280;66287;42.658;27.568;2023-04-03T19:25:19;99454.69;;;15.09;63.42
77250;BME280;66287;42.658;27.568;2023-04-03T19:27:46;99449.91;;;15.00;63.45
77250;BME280;66287;42.658;27.568;2023-04-03T19:30:11;99445.47;;;14.94;64.07
77250;BME280;66287;42.658;27.568;2023-04-03T19:32:37;99458.53;;;14.92;64.54
77250;BME280;66287;42.658;27.568;2023-04-03T19:35:03;99462.34;;;14.91;64.59
77250;BME280;66287;42.658;27.568;2023-04-03T19:37:29;99471.75;;;14.83;64.25
77250;BME280;66287;42.658;27.568;2023-04-03T19:39:54;99474.97;;;14.80;64.96
77250;BME280;66287;42.658;27.568;2023-04-03T19:42:20;99475.81;;;14.80;64.76
77250;BME280;66287;42.658;27.568;2023-04-03T19:44:46;99470.59;;;14.79;65.26
77250;BME280;66287;42.658;27.568;2023-04-03T19:47:13;99468.13;;;14.77;64.98
77250;BME280;66287;42.658;27.568;2023-04-03T19:49:40;99481.50;;;14.79;64.94
77250;BME280;66287;42.658;27.568;2023-04-03T19:52:06;99488.56;;;14.75;65.20
77250;BME280;66287;42.658;27.568;2023-04-03T19:54:33;99511.69;;;14.72;65.33
77250;BME280;66287;42.658;27.568;2023-04-03T19:56:58;99505.31;;;14.67;65.14
77250;BME280;66287;42.658;27.568;2023-04-03T19:59:24;99511.84;;;14.66;65.46
77250;BME280;66287;42.658;27.568;2023-04-03T20:01:50;99511.50;;;14.62;65.47
77250;BME280;66287;42.658;27.568;2023-04-03T20:04:15;99498.94;;;14.61;65.48
77250;BME280;66287;42.658;27.568;2023-04-03T20:06:41;99500.00;;;14.60;65.19
77250;BME280;66287;42.658;27.568;2023-04-03T20:09:06;99484.41;;;14.56;65.84
77250;BME280;66287;42.658;27.568;2023-04-03T20:11:35;99503.16;;;14.52;65.42
77250;BME280;66287;42.658;27.568;2023-04-03T20:14:01;99494.97;;;14.52;65.91
77250;BME280;66287;42.658;27.568;2023-04-03T20:16:27;99497.13;;;14.50;65.87
77250;BME280;66287;42.658;27.568;2023-04-03T20:18:53;99493.81;;;14.48;65.53
77250;BME280;66287;42.658;27.568;2023-04-03T20:21:20;99488.84;;;14.45;66.27
77250;BME280;66287;42.658;27.568;2023-04-03T20:23:50;99483.88;;;14.42;66.23
77250;BME280;66287;42.658;27.568;2023-04-03T20:26:20;99471.66;;;14.44;66.13
77250;BME280;66287;42.658;27.568;2023-04-03T20:28:50;99462.66;;;14.44;66.57
77250;BME280;66287;42.658;27.568;2023-04-03T20:31:16;99460.88;;;14.38;66.57
77250;BME280;66287;42.658;27.568;2023-04-03T20:33:42;99462.22;;;14.35;66.87
77250;BME280;66287;42.658;27.568;2023-04-03T20:36:07;99462.44;;;14.34;66.75
77250;BME280;66287;42.658;27.568;2023-04-03T20:38:33;99457.25;;;14.32;66.69
77250;BME280;66287;42.658;27.568;2023-04-03T20:40:58;99461.88;;;14.32;66.58
77250;BME280;66287;42.658;27.568;2023-04-03T20:43:24;99455.50;;;14.26;66.36
77250;BME280;66287;42.658;27.568;2023-04-03T20:45:49;99457.97;;;14.28;67.00
77250;BME280;66287;42.658;27.568;2023-04-03T20:48:17;99461.19;;;14.25;66.84
77250;BME280;66287;42.658;27.568;2023-04-03T20:50:43;99459.19;;;14.20;66.85
77250;BME280;66287;42.658;27.568;2023-04-03T20:53:10;99461.59;;;14.17;66.94
77250;BME280;66287;42.658;27.568;2023-04-03T20:55:38;99469.19;;;14.14;66.74
77250;BME280;66287;42.658;27.568;2023-04-03T20:58:03;99454.97;;;14.12;66.84
77250;BME280;66287;42.658;27.568;2023-04-03T21:00:29;99457.13;;;14.10;66.74
77250;BME280;66287;42.658;27.568;2023-04-03T21:02:56;99473.47;;;14.10;67.27
77250;BME280;66287;42.658;27.568;2023-04-03T21:05:25;99468.59;;;14.12;66.82
77250;BME280;66287;42.658;27.568;2023-04-03T21:21:20;99451.56;;;14.05;67.46
77250;BME280;66287;42.658;27.568;2023-04-03T21:23:48;99452.38;;;14.06;67.47
77250;BME280;66287;42.658;27.568;2023-04-03T21:26:14;99449.06;;;14.04;67.55
77250;BME280;66287;42.658;27.568;2023-04-03T21:28:39;99437.84;;;14.00;68.14
77250;BME280;66287;42.658;27.568;2023-04-03T21:31:07;99442.44;;;14.00;68.23
77250;BME280;66287;42.658;27.568;2023-04-03T21:33:32;99438.91;;;13.99;67.90
77250;BME280;66287;42.658;27.568;2023-04-03T21:35:57;99430.19;;;13.97;67.77
77250;BME280;66287;42.658;27.568;2023-04-03T21:38:24;99437.19;;;13.93;68.48
77250;BME280;66287;42.658;27.568;2023-04-03T21:40:55;99451.63;;;13.94;68.45
77250;BME280;66287;42.658;27.568;2023-04-03T21:43:21;99453.53;;;13.93;68.49
77250;BME280;66287;42.658;27.568;2023-04-03T21:45:47;99448.31;;;13.92;68.13
77250;BME280;66287;42.658;27.568;2023-04-03T21:48:14;99437.66;;;13.90;68.40
77250;BME280;66287;42.658;27.568;2023-04-03T21:50:44;99432.69;;;13.87;68.46
77250;BME280;66287;42.658;27.568;2023-04-03T21:53:13;99428.31;;;13.86;68.68
77250;BME280;66287;42.658;27.568;2023-04-03T21:55:39;99425.81;;;13.85;68.32
77250;BME280;66287;42.658;27.568;2023-04-03T21:58:05;99422.03;;;13.86;68.37
77250;BME280;66287;42.658;27.568;2023-04-03T22:00:31;99398.84;;;13.83;68.78
77250;BME280;66287;42.658;27.568;2023-04-03T22:02:56;99415.94;;;13.78;69.13
77250;BME280;66287;42.658;27.568;2023-04-03T22:05:22;99398.19;;;13.76;68.87
77250;BME280;66287;42.658;27.568;2023-04-03T22:07:47;99401.47;;;13.78;69.07
77250;BME280;66287;42.658;27.568;2023-04-03T22:10:13;99409.06;;;13.76;69.24
77250;BME280;66287;42.658;27.568;2023-04-03T22:12:40;99422.69;;;13.76;68.81
77250;BME280;66287;42.658;27.568;2023-04-03T22:15:05;99419.38;;;13.74;69.21
77250;BME280;66287;42.658;27.568;2023-04-03T22:17:31;99406.00;;;13.72;68.97
77250;BME280;66287;42.658;27.568;2023-04-03T22:19:57;99410.63;;;13.72;69.33
77250;BME280;66287;42.658;27.568;2023-04-03T22:22:22;99399.13;;;13.70;69.05
77250;BME280;66287;42.658;27.568;2023-04-03T22:24:49;99408.38;;;13.69;69.08
77250;BME280;66287;42.658;27.568;2023-04-03T22:27:14;99411.09;;;13.69;69.19
77250;BME280;66287;42.658;27.568;2023-04-03T22:29:40;99397.47;;;13.69;69.23
77250;BME280;66287;42.658;27.568;2023-04-03T22:32:06;99399.03;;;13.65;69.57
77250;BME280;66287;42.658;27.568;2023-04-03T22:34:32;99394.66;;;13.64;69.67
77250;BME280;66287;42.658;27.568;2023-04-03T22:36:58;99400.34;;;13.62;69.79
77250;BME280;66287;42.658;27.568;2023-04-03T22:39:24;99397.03;;;13.60;69.66
77250;BME280;66287;42.658;27.568;2023-04-03T22:41:50;99385.59;;;13.58;69.94
77250;BME280;66287;42.658;27.568;2023-04-03T22:44:16;99382.28;;;13.56;69.41
77250;BME280;66287;42.658;27.568;2023-04-03T22:46:42;99384.41;;;13.54;69.47
77250;BME280;66287;42.658;27.568;2023-04-03T22:49:07;99381.69;;;13.54;69.96
77250;BME280;66287;42.658;27.568;2023-04-03T22:51:33;99376.47;;;13.53;69.82
77250;BME280;66287;42.658;27.568;2023-04-03T22:53:58;99370.78;;;13.54;70.11
77250;BME280;66287;42.658;27.568;2023-04-03T22:56:24;99367.47;;;13.52;70.14
77250;BME280;66287;42.658;27.568;2023-04-03T22:58:49;99364.41;;;13.49;70.22
77250;BME280;66287;42.658;27.568;2023-04-03T23:01:15;99377.19;;;13.48;70.07
77250;BME280;66287;42.658;27.568;2023-04-03T23:03:41;99374.72;;;13.47;70.34
77250;BME280;66287;42.658;27.568;2023-04-03T23:06:07;99380.97;;;13.47;70.00
77250;BME280;66287;42.658;27.568;2023-04-03T23:08:33;99367.03;;;13.43;70.20
77250;BME280;66287;42.658;27.568;2023-04-03T23:10:59;99362.88;;;13.41;70.33
77250;BME280;66287;42.658;27.568;2023-04-03T23:13:25;99355.78;;;13.40;70.53
77250;BME280;66287;42.658;27.568;2023-04-03T23:15:57;99353.06;;;13.40;70.43
77250;BME280;66287;42.658;27.568;2023-04-03T23:18:23;99346.81;;;13.39;70.39
77250;BME280;66287;42.658;27.568;2023-04-03T23:20:49;99345.97;;;13.39;70.24
77250;BME280;66287;42.658;27.568;2023-04-03T23:23:19;99337.25;;;13.37;70.68
77250;BME280;66287;42.658;27.568;2023-04-03T23:25:49;99345.66;;;13.35;70.53
77250;BME280;66287;42.658;27.568;2023-04-03T23:28:15;99340.22;;;13.35;70.72
77250;BME280;66287;42.658;27.568;2023-04-03T23:30:41;99340.22;;;13.35;70.40
77250;BME280;66287;42.658;27.568;2023-04-03T23:33:07;99326.59;;;13.35;70.83
77250;BME280;66287;42.658;27.568;2023-04-03T23:35:33;99331.22;;;13.35;70.91
77250;BME280;66287;42.658;27.568;2023-04-03T23:37:58;99318.91;;;13.32;70.85
77250;BME280;66287;42.658;27.568;2023-04-03T23:40:24;99323.78;;;13.30;70.83
77250;BME280;66287;42.658;27.568;2023-04-03T23:42:49;99320.47;;;13.28;70.52
77250;BME280;66287;42.658;27.568;2023-04-03T23:45:15;99315.25;;;13.27;70.94
77250;BME280;66287;42.658;27.568;2023-04-03T23:47:40;99309.81;;;13.27;71.12
77250;BME280;66287;42.658;27.568;2023-04-03T23:50:06;99313.84;;;13.24;71.06
77250;BME280;66287;42.658;27.568;2023-04-03T23:52:32;99304.03;;;13.23;70.75
77250;BME280;66287;42.658;27.568;2023-04-03T23:54:57;99299.66;;;13.22;70.97
77250;BME280;66287;42.658;27.568;2023-04-03T23:57:23;99288.69;;;13.17;71.30
77250;BME280;66287;42.658;27.568;2023-04-03T23:59:48;99287.03;;;13.16;71.26
